www.nordhorn-wetter.com
Wetterdaten: aktuell Montag, 31.08.2026 21:39
Datum Zeit Temp. A. BodenT -5cm Temp +10cm Extra Temp Feuchte A. BlattFeuchte Bod.Feu -5cm Luftdruck Regen Wind Richtung Richtung Sonnenschein ET UV Solar Taupunkt Windböen Empfang
31.08.2026 21:39 15,1 °C 0,0 °C 18,3 °C 17,9 °C 95 % 15 lf 36 cb 1012,4 hPa 0,0 mm 5,2 km/h (1 Bft) SW 234 ° 0 min 0,000 mm 0,0 UV-I 0 W/m² 14,3 °C 9,7 km/h (2 Bft) 95,83 %
31.08.2026 20:39 15,7 °C 0,0 °C 18,3 °C 17,9 °C 93 % 15 lf 36 cb 1011,6 hPa 1,0 mm 4,7 km/h (1 Bft) SW 217 ° 5 min 0,025 mm 0,0 UV-I 0 W/m² 14,6 °C 9,7 km/h (2 Bft) 100,00 %
31.08.2026 19:39 16,0 °C 0,0 °C 18,9 °C 17,9 °C 93 % 15 lf 36 cb 1010,6 hPa 0,0 mm 3,0 km/h (1 Bft) W 270 ° 7 min 0,077 mm 0,0 UV-I 49 W/m² 14,9 °C 4,8 km/h (1 Bft) 100,00 %
31.08.2026 18:39 16,2 °C 0,0 °C 18,9 °C 18,4 °C 91 % 15 lf 36 cb 1009,8 hPa 0,4 mm 7,1 km/h (2 Bft) W 265 ° 18 min 0,050 mm 0,5 UV-I 70 W/m² 14,7 °C 12,9 km/h (3 Bft) 91,67 %
31.08.2026 17:39 16,3 °C 0,0 °C 19,4 °C 18,4 °C 92 % 15 lf 36 cb 1009,3 hPa 2,6 mm 6,8 km/h (2 Bft) SW 236 ° 24 min 0,204 mm 0,0 UV-I 63 W/m² 15,0 °C 9,7 km/h (2 Bft) 100,00 %
31.08.2026 16:39 16,6 °C 0,0 °C 19,4 °C 18,4 °C 91 % 15 lf 36 cb 1008,8 hPa 1,0 mm 8,2 km/h (2 Bft) W-SW 249 ° 5 min 0,076 mm 1,5 UV-I 296 W/m² 15,1 °C 11,3 km/h (2 Bft) 91,67 %
31.08.2026 15:39 15,4 °C 0,0 °C 20,0 °C 18,4 °C 92 % 15 lf 35 cb 1008,8 hPa 2,4 mm 9,3 km/h (2 Bft) W-SW 250 ° 11 min 0,406 mm 0,8 UV-I 128 W/m² 14,1 °C 14,5 km/h (3 Bft) 100,00 %
31.08.2026 14:39 22,2 °C 0,0 °C 20,0 °C 17,9 °C 67 % 0 lf 35 cb 1007,2 hPa 0,0 mm 15,4 km/h (3 Bft) W-SW 238 ° 60 min 0,330 mm 3,9 UV-I 733 W/m² 15,8 °C 29,0 km/h (5 Bft) 95,65 %
31.08.2026 13:38 18,7 °C 0,0 °C 18,9 °C 17,3 °C 89 % 15 lf 34 cb 1007,2 hPa 1,0 mm 9,1 km/h (2 Bft) S-SW 210 ° 4 min 0,280 mm 4,2 UV-I 764 W/m² 16,8 °C 14,5 km/h (3 Bft) 95,65 %
31.08.2026 12:38 20,1 °C 0,0 °C 18,9 °C 17,3 °C 74 % 0 lf 34 cb 1007,3 hPa 0,0 mm 14,0 km/h (3 Bft) W-SW 252 ° 29 min 0,228 mm 2,7 UV-I 385 W/m² 15,3 °C 24,1 km/h (4 Bft) 100,00 %
31.08.2026 11:38 19,1 °C 0,0 °C 18,3 °C 16,8 °C 85 % 15 lf 34 cb 1007,6 hPa 0,2 mm 7,0 km/h (2 Bft) S-SO 160 ° 13 min 0,204 mm 2,1 UV-I 329 W/m² 16,5 °C 11,3 km/h (2 Bft) 95,65 %
31.08.2026 10:38 19,2 °C 0,0 °C 17,8 °C 16,8 °C 80 % 0 lf 34 cb 1007,7 hPa 0,0 mm 14,8 km/h (3 Bft) SO 142 ° 28 min 0,177 mm 2,2 UV-I 729 W/m² 15,7 °C 24,1 km/h (4 Bft) 100,00 %
31.08.2026 09:38 18,7 °C 0,0 °C 17,8 °C 16,8 °C 84 % 0 lf 34 cb 1007,8 hPa 0,0 mm 10,2 km/h (2 Bft) S-SW 202 ° 11 min 0,077 mm 1,7 UV-I 538 W/m² 15,9 °C 19,3 km/h (3 Bft) 95,65 %
31.08.2026 08:38 17,1 °C 0,0 °C 17,2 °C 16,8 °C 88 % 0 lf 34 cb 1007,7 hPa 0,0 mm 8,3 km/h (2 Bft) SW 218 ° 32 min 0,025 mm 0,6 UV-I 95 W/m² 15,1 °C 17,7 km/h (3 Bft) 87,50 %
31.08.2026 07:38 16,1 °C 0,0 °C 19,4 °C 17,9 °C 91 % 15 lf 35 cb 1007,4 hPa 0,0 mm 4,9 km/h (1 Bft) SW 215 ° 0 min 0,000 mm 0,0 UV-I 52 W/m² 14,6 °C 9,7 km/h (2 Bft) 95,83 %
31.08.2026 06:38 15,2 °C 0,0 °C 19,4 °C 17,9 °C 93 % 15 lf 35 cb 1007,3 hPa 0,0 mm 5,5 km/h (2 Bft) S-SW 208 ° 0 min 0,000 mm 0,0 UV-I 0 W/m² 14,1 °C 6,4 km/h (2 Bft) 95,83 %
31.08.2026 05:38 15,3 °C 0,0 °C 19,4 °C 17,9 °C 92 % 15 lf 35 cb 1007,5 hPa 0,0 mm 5,0 km/h (1 Bft) S 169 ° 0 min 0,000 mm 0,0 UV-I 0 W/m² 14,0 °C 8,0 km/h (2 Bft) 100,00 %
31.08.2026 04:38 15,6 °C 0,0 °C 19,4 °C 17,9 °C 91 % 15 lf 35 cb 1007,5 hPa 0,0 mm 4,4 km/h (1 Bft) S-SW 194 ° 0 min 0,000 mm 0,0 UV-I 0 W/m² 14,1 °C 6,4 km/h (2 Bft) 95,65 %
31.08.2026 03:38 15,8 °C 0,0 °C 19,4 °C 17,9 °C 90 % 15 lf 35 cb 1007,6 hPa 0,0 mm 6,0 km/h (2 Bft) S-SO 163 ° 0 min 0,000 mm 0,0 UV-I 0 W/m² 14,2 °C 8,0 km/h (2 Bft) 100,00 %
31.08.2026 02:38 16,1 °C 0,0 °C 19,4 °C 17,9 °C 91 % 15 lf 35 cb 1008,2 hPa 0,0 mm 3,1 km/h (1 Bft) S 178 ° 0 min 0,000 mm 0,0 UV-I 0 W/m² 14,6 °C 4,8 km/h (1 Bft) 100,00 %
31.08.2026 01:38 16,4 °C 0,0 °C 19,4 °C 17,9 °C 90 % 15 lf 35 cb 1008,5 hPa 0,0 mm 0,0 km/h (0 Bft) S-SO 162 ° 0 min 0,000 mm 0,0 UV-I 0 W/m² 14,8 °C 0,0 km/h (0 Bft) 100,00 %
31.08.2026 00:38 16,1 °C 0,0 °C 19,4 °C 17,9 °C 93 % 15 lf 35 cb 1009,1 hPa 0,0 mm 0,0 km/h (0 Bft) S-SO 156 ° 0 min 0,000 mm 0,0 UV-I 0 W/m² 15,0 °C 0,0 km/h (0 Bft) 95,65 %
31.08.2026 00:00 16,3 °C 0,0 °C 19,4 °C 17,9 °C 93 % 15 lf 35 cb 1009,5 hPa 0,0 mm 0,0 km/h (0 Bft) S 174 ° 0 min 0,000 mm 0,0 UV-I 0 W/m² 15,2 °C 0,0 km/h (0 Bft) 100,00 %
_ Min-Zeit 15:58 21:39 09:14 11:46 14:55 17:18 13:40 13:20 - 04:59 - - - - - - 15:56 04:59 00:05
Minimum _ 14,8 °C 0,0 °C 17,2 °C 16,8 °C 63 % 0 lf 34 cb 1006,9 hPa - 0,0 km/h (0 Bft) - - - - - - 13,3 °C 0,0 km/h (0 Bft) 9,09 %
_ Max-Zeit 14:36 21:39 15:18 18:48 21:39 21:39 21:39 21:38 15:26 14:36 - - 14:32 15:03 13:29 11:52 13:45 14:09 21:38
Maximum _ 22,3 °C 0,0 °C 20,6 °C 18,4 °C 95 % 15 lf 36 cb 1012,5 hPa 1,0 mm 21,7 km/h
S-SW (4 Bft)
- - 2 min 0,406 mm 4,9 UV-I 928 W/m² 17,4 °C 38,6 km/h
S-SW (6 Bft)
100,00 %
Durchschnitt _ 17,1 °C 0,0 °C 19,0 °C 17,7 °C 88 % 10 lf 35 cb 1008,4 hPa #8,6 mm 7,5 km/h (2 Bft) SW - #4:08 h #2,159 mm 1,8 UV-I 246 W/m² 14,9 °C 12,6 km/h (2 Bft) 96,25 %
© 2006-2026 Nordhorn-Wetter.com